createdAt,value
2024-01-15T00:01:11.866Z,99291.06
2024-01-15T00:03:38.615Z,99284.78
2024-01-15T00:06:05.542Z,99295.22
2024-01-15T00:08:32.032Z,99281.81
2024-01-15T00:10:58.423Z,99274.53
2024-01-15T00:13:24.873Z,99278.16
2024-01-15T00:15:51.509Z,99271.88
2024-01-15T00:18:18.116Z,99273.53
2024-01-15T00:20:44.740Z,99261.06
2024-01-15T00:23:11.157Z,99261.91
2024-01-15T00:25:37.640Z,99261.06
2024-01-15T00:28:04.911Z,99253.09
2024-01-15T00:30:31.405Z,99264.56
2024-01-15T00:32:57.993Z,99251.28
2024-01-15T00:35:24.554Z,99245.97
2024-01-15T00:37:50.979Z,99244.00
2024-01-15T00:40:17.389Z,99234.19
2024-01-15T00:42:44.372Z,99235.06
2024-01-15T00:45:11.011Z,99250.13
2024-01-15T00:47:37.558Z,99244.00
2024-01-15T00:50:04.448Z,99240.66
2024-01-15T00:52:30.890Z,99248.78
2024-01-15T00:54:57.498Z,99243.78
2024-01-15T00:57:24.194Z,99241.28
2024-01-15T00:59:50.681Z,99241.41
2024-01-15T01:02:17.107Z,99232.63
2024-01-15T01:04:43.684Z,99244.25
2024-01-15T01:07:10.109Z,99236.28
2024-01-15T01:09:36.581Z,99235.44
2024-01-15T01:12:03.190Z,99233.78
2024-01-15T01:14:29.618Z,99248.88
2024-01-15T01:16:56.117Z,99244.56
2024-01-15T01:19:22.792Z,99234.91
2024-01-15T01:21:49.471Z,99240.38
2024-01-15T01:24:15.959Z,99241.22
2024-01-15T01:26:42.520Z,99239.56
2024-01-15T01:29:08.946Z,99231.88
2024-01-15T01:31:35.501Z,99233.56
2024-01-15T01:34:02.263Z,99230.22
2024-01-15T01:36:28.766Z,99216.13
2024-01-15T01:38:55.195Z,99225.22
2024-01-15T01:41:21.714Z,99211.28
2024-01-15T01:43:48.111Z,99214.25
2024-01-15T01:46:14.668Z,99210.22
2024-01-15T01:48:41.198Z,99212.50
2024-01-15T01:51:08.947Z,99212.97
2024-01-15T01:53:37.540Z,99210.78
2024-01-15T01:56:05.121Z,99208.56
2024-01-15T01:58:33.730Z,99215.00
2024-01-15T02:01:00.815Z,99220.78
2024-01-15T02:03:29.260Z,99218.59
2024-01-15T02:05:56.223Z,99211.09
2024-01-15T02:08:23.174Z,99215.00
2024-01-15T02:10:49.762Z,99217.28
2024-01-15T02:13:16.461Z,99227.25
2024-01-15T02:15:43.040Z,99221.25
2024-01-15T02:18:09.747Z,99226.53
2024-01-15T02:20:36.748Z,99213.41
2024-01-15T02:23:13.695Z,99217.91
2024-01-15T02:25:45.893Z,99208.41
2024-01-15T02:28:14.645Z,99208.41
2024-01-15T02:30:42.595Z,99218.19
2024-01-15T02:33:10.107Z,99212.91
2024-01-15T02:35:39.799Z,99197.50
2024-01-15T02:38:07.308Z,99207.16
2024-01-15T02:40:34.137Z,99200.84
2024-01-15T02:43:00.679Z,99201.53
2024-01-15T02:45:28.615Z,99206.53
2024-01-15T02:47:55.148Z,99202.75
2024-01-15T02:50:21.724Z,99202.44
2024-01-15T02:52:48.256Z,99204.78
2024-01-15T02:55:14.766Z,99201.00
2024-01-15T02:57:41.269Z,99210.47
2024-01-15T03:00:08.499Z,99199.53
2024-01-15T03:02:42.260Z,99197.44
2024-01-15T03:05:10.978Z,99191.97
2024-01-15T03:07:37.530Z,99201.44
2024-01-15T03:10:04.184Z,99193.16
2024-01-15T03:12:30.685Z,99194.84
2024-01-15T03:14:57.131Z,99206.16
2024-01-15T03:17:23.538Z,99205.97
2024-01-15T03:19:50.899Z,99205.00
2024-01-15T03:22:17.874Z,99216.47
2024-01-15T03:24:44.976Z,99207.50
2024-01-15T03:27:11.738Z,99210.84
2024-01-15T03:29:38.216Z,99217.81
2024-01-15T03:32:04.829Z,99213.34
2024-01-15T03:34:31.480Z,99214.19
2024-01-15T03:36:57.931Z,99206.03
2024-01-15T03:39:24.396Z,99204.06
2024-01-15T03:41:50.897Z,99207.56
2024-01-15T03:44:17.345Z,99215.38
2024-01-15T03:46:43.747Z,99204.59
2024-01-15T03:49:10.344Z,99223.03
2024-01-15T03:51:36.938Z,99220.22
2024-01-15T03:54:03.435Z,99206.97
2024-01-15T03:56:29.860Z,99204.31
2024-01-15T03:58:56.262Z,99200.66
2024-01-15T04:01:22.727Z,99208.47
2024-01-15T04:03:49.314Z,99202.31
2024-01-15T04:06:15.895Z,99198.69
2024-01-15T04:08:42.356Z,99190.72
2024-01-15T04:11:08.833Z,99195.84
2024-01-15T04:13:35.305Z,99197.69
2024-01-15T04:16:02.015Z,99192.38
2024-01-15T04:18:28.551Z,99196.03
2024-01-15T04:20:55.075Z,99198.69
2024-01-15T04:23:21.711Z,99207.63
2024-01-15T04:25:48.169Z,99192.81
2024-01-15T04:28:14.576Z,99184.88
2024-01-15T04:30:41.338Z,99182.22
2024-01-15T04:33:08.343Z,99176.06
2024-01-15T04:35:35.636Z,99187.84
2024-01-15T04:38:02.071Z,99181.88
2024-01-15T04:40:28.853Z,99183.66
2024-01-15T04:42:55.874Z,99186.50
2024-01-15T04:45:23.913Z,99173.38
2024-01-15T04:47:50.563Z,99177.00
2024-01-15T04:50:17.014Z,99175.50
2024-01-15T04:52:43.489Z,99169.50
2024-01-15T04:55:10.274Z,99167.84
2024-01-15T04:57:36.929Z,99163.50
2024-01-15T05:00:03.994Z,99169.00
2024-01-15T05:02:30.553Z,99154.03
2024-01-15T05:04:56.964Z,99159.53
2024-01-15T05:07:23.367Z,99153.53
2024-01-15T05:09:49.869Z,99151.00
2024-01-15T05:12:16.360Z,99141.41
2024-01-15T05:14:42.782Z,99160.97
2024-01-15T05:17:11.382Z,99158.59
2024-01-15T05:19:38.142Z,99164.09
2024-01-15T05:22:04.782Z,99155.56
2024-01-15T05:24:31.411Z,99159.22
2024-01-15T05:26:57.899Z,99139.00
2024-01-15T05:29:24.350Z,99154.22
2024-01-15T05:31:50.918Z,99140.97
2024-01-15T05:34:17.540Z,99141.09
2024-01-15T05:36:43.989Z,99137.63
2024-01-15T05:39:10.620Z,99130.66
2024-01-15T05:41:37.038Z,99129.97
2024-01-15T05:44:03.462Z,99137.94
2024-01-15T05:46:29.960Z,99138.78
2024-01-15T05:48:56.544Z,99141.28
2024-01-15T05:51:24.225Z,99136.94
2024-01-15T05:53:52.702Z,99153.53
2024-01-15T05:56:19.332Z,99142.94
2024-01-15T05:58:45.796Z,99147.25
2024-01-15T06:01:12.349Z,99151.59
2024-01-15T06:03:38.966Z,99150.75
2024-01-15T06:06:05.952Z,99150.75
2024-01-15T06:08:32.505Z,99150.75
2024-01-15T06:11:01.838Z,99145.44
2024-01-15T06:13:28.599Z,99141.78
2024-01-15T06:15:55.123Z,99154.91
2024-01-15T06:18:21.704Z,99155.75
2024-01-15T06:20:48.296Z,99158.41
2024-01-15T06:23:14.772Z,99163.53
2024-01-15T06:25:41.193Z,99151.97
2024-01-15T06:28:07.638Z,99150.00
2024-01-15T06:30:34.191Z,99156.94
2024-01-15T06:33:00.877Z,99151.63
2024-01-15T06:35:27.367Z,99145.34
2024-01-15T06:37:53.971Z,99153.97
2024-01-15T06:40:20.445Z,99157.47
2024-01-15T06:42:46.873Z,99156.50
2024-01-15T06:45:13.355Z,99144.19
2024-01-15T06:47:39.986Z,99152.84
2024-01-15T06:50:08.228Z,99158.16
2024-01-15T06:52:34.799Z,99164.28
2024-01-15T06:55:01.549Z,99162.63
2024-01-15T06:57:28.073Z,99155.50
2024-01-15T06:59:54.530Z,99158.97
2024-01-15T07:02:20.985Z,99165.97
2024-01-15T07:04:47.511Z,99164.28
2024-01-15T07:07:13.967Z,99163.31
2024-01-15T07:09:40.445Z,99165.78
2024-01-15T07:12:07.062Z,99149.88
2024-01-15T07:14:33.446Z,99168.44
2024-01-15T07:16:59.938Z,99178.09
2024-01-15T07:19:26.490Z,99182.53
2024-01-15T07:21:56.642Z,99174.59
2024-01-15T07:24:23.762Z,99182.53
2024-01-15T07:26:50.404Z,99172.94
2024-01-15T07:29:16.798Z,99179.91
2024-01-15T07:31:49.718Z,99186.88
2024-01-15T07:34:16.501Z,99175.44
2024-01-15T07:36:42.967Z,99181.72
2024-01-15T07:39:09.479Z,99176.41
2024-01-15T07:41:35.944Z,99166.78
2024-01-15T07:44:03.664Z,99165.97
2024-01-15T07:46:30.077Z,99167.09
2024-01-15T07:48:59.540Z,99172.41
2024-01-15T07:51:26.240Z,99173.38
2024-01-15T07:53:58.653Z,99170.06
2024-01-15T07:56:25.154Z,99165.72
2024-01-15T07:58:51.552Z,99155.28
2024-01-15T08:01:18.455Z,99162.41
2024-01-15T08:03:45.063Z,99158.91
2024-01-15T08:06:11.655Z,99159.91
2024-01-15T08:08:38.664Z,99168.56
2024-01-15T08:11:05.224Z,99175.53
2024-01-15T08:13:31.877Z,99164.91
2024-01-15T08:15:58.510Z,99167.25
2024-01-15T08:18:25.297Z,99176.03
2024-01-15T08:20:52.644Z,99170.59
2024-01-15T08:23:19.407Z,99179.38
2024-01-15T08:25:45.849Z,99175.75
2024-01-15T08:28:12.391Z,99174.75
2024-01-15T08:30:39.130Z,99188.72
2024-01-15T08:33:11.482Z,99178.09
2024-01-15T08:35:44.986Z,99167.31
2024-01-15T08:38:11.377Z,99169.13
2024-01-15T08:40:37.784Z,99172.63
2024-01-15T08:43:04.499Z,99176.97
2024-01-15T08:45:32.312Z,99160.19
2024-01-15T08:47:59.465Z,99163.69
2024-01-15T08:50:26.020Z,99165.34
2024-01-15T08:52:53.001Z,99173.16
2024-01-15T08:55:19.548Z,99167.00
2024-01-15T08:57:46.113Z,99163.19
2024-01-15T09:00:13.704Z,99172.03
2024-01-15T09:02:40.120Z,99171.84
2024-01-15T09:05:07.478Z,99167.53
2024-01-15T09:07:33.948Z,99171.03
2024-01-15T09:10:00.719Z,99160.53
2024-01-15T09:12:27.698Z,99154.41
2024-01-15T09:14:55.019Z,99156.09
2024-01-15T09:17:22.855Z,99168.38
2024-01-15T09:19:50.231Z,99160.25
2024-01-15T09:22:19.689Z,99169.75
2024-01-15T09:24:46.634Z,99171.25
2024-01-15T09:27:13.293Z,99170.06
2024-01-15T09:29:41.985Z,99177.06
2024-01-15T09:32:08.737Z,99164.63
2024-01-15T09:34:35.991Z,99166.28
2024-01-15T09:37:03.838Z,99161.81
2024-01-15T09:39:30.494Z,99167.78
2024-01-15T09:41:57.646Z,99161.50
2024-01-15T09:44:24.610Z,99160.38
2024-01-15T09:46:52.421Z,99162.03
2024-01-15T09:49:19.620Z,99165.50
2024-01-15T09:51:53.345Z,99157.25
2024-01-15T09:54:22.496Z,99149.94
2024-01-15T09:56:48.955Z,99162.06
2024-01-15T09:59:19.933Z,99163.56
2024-01-15T10:01:46.993Z,99159.78
2024-01-15T10:04:16.174Z,99157.66
2024-01-15T10:06:47.361Z,99154.50
2024-01-15T10:09:17.322Z,99164.66
2024-01-15T10:11:44.468Z,99158.06
2024-01-15T10:14:15.196Z,99164.72
2024-01-15T10:16:42.167Z,99146.78
2024-01-15T10:19:09.376Z,99141.16
2024-01-15T10:21:36.967Z,99142.66
2024-01-15T10:24:05.093Z,99146.00
2024-01-15T10:26:32.343Z,99149.34
2024-01-15T10:29:01.591Z,99146.34
2024-01-15T10:31:30.713Z,99145.22
2024-01-15T10:34:13.404Z,99148.69
2024-01-15T10:36:42.924Z,99144.88
2024-01-15T10:39:09.345Z,99157.16
2024-01-15T10:41:36.154Z,99150.69
2024-01-15T10:44:02.677Z,99151.22
2024-01-15T10:46:29.984Z,99150.91
2024-01-15T10:48:56.578Z,99154.25
2024-01-15T10:51:24.640Z,99168.84
2024-01-15T10:53:51.782Z,99143.09
2024-01-15T10:56:19.715Z,99157.91
2024-01-15T10:58:46.393Z,99153.25
2024-01-15T11:01:14.482Z,99145.97
2024-01-15T11:03:41.576Z,99141.66
2024-01-15T11:06:23.528Z,99140.66
2024-01-15T11:08:53.109Z,99131.03
2024-01-15T11:11:21.991Z,99135.47
2024-01-15T11:13:50.671Z,99136.34
2024-01-15T11:16:17.262Z,99151.13
2024-01-15T11:19:03.164Z,99144.63
2024-01-15T11:21:33.109Z,99145.16
2024-01-15T11:24:01.705Z,99136.03
2024-01-15T11:26:46.912Z,99135.03
2024-01-15T11:29:30.716Z,99117.22
2024-01-15T11:32:10.117Z,99128.19
2024-01-15T11:35:00.863Z,99124.72
2024-01-15T11:37:29.246Z,99133.84
2024-01-15T11:39:57.356Z,99131.34
2024-01-15T11:42:24.372Z,99125.38
2024-01-15T11:44:51.612Z,99129.00
2024-01-15T11:47:41.476Z,99129.00
2024-01-15T11:50:09.492Z,99130.00
2024-01-15T11:52:40.005Z,99129.88
2024-01-15T11:55:17.976Z,99120.06
2024-01-15T11:57:53.033Z,99125.03
2024-01-15T12:00:20.098Z,99118.72
2024-01-15T12:02:48.721Z,99128.38
2024-01-15T12:05:17.152Z,99132.84
2024-01-15T12:07:46.198Z,99129.34
2024-01-15T12:10:17.575Z,99129.69
2024-01-15T12:12:54.729Z,99114.06
2024-01-15T12:15:21.431Z,99118.56
2024-01-15T12:17:48.726Z,99115.06
2024-01-15T12:20:17.034Z,99115.91
2024-01-15T12:22:53.651Z,99111.41
2024-01-15T12:25:30.601Z,99118.03
2024-01-15T12:27:57.595Z,99123.22
2024-01-15T12:30:24.285Z,99122.06
2024-01-15T12:32:51.464Z,99128.19
2024-01-15T12:35:17.998Z,99129.03
2024-01-15T12:37:47.208Z,99134.34
2024-01-15T12:40:13.961Z,99132.69
2024-01-15T12:42:40.934Z,99133.03
2024-01-15T12:45:09.316Z,99127.03
2024-01-15T12:47:36.938Z,99121.03
2024-01-15T12:50:10.227Z,99132.00
2024-01-15T12:52:43.216Z,99127.84
2024-01-15T12:55:10.727Z,99127.00
2024-01-15T12:57:38.215Z,99130.00
2024-01-15T13:00:13.264Z,99117.03
2024-01-15T13:02:41.497Z,99117.19
2024-01-15T13:05:10.225Z,99121.81
2024-01-15T13:07:36.775Z,99134.47
2024-01-15T13:10:03.630Z,99120.50
2024-01-15T13:12:30.084Z,99126.13
2024-01-15T13:14:57.549Z,99128.13
2024-01-15T13:17:23.987Z,99121.97
2024-01-15T13:19:50.725Z,99119.47
2024-01-15T13:22:17.474Z,99128.25
2024-01-15T13:24:44.683Z,99126.44
2024-01-15T13:27:11.386Z,99132.59
2024-01-15T13:29:38.003Z,99119.31
2024-01-15T13:32:05.842Z,99125.28
2024-01-15T13:34:32.462Z,99120.81
2024-01-15T13:36:59.071Z,99130.44
2024-01-15T13:39:25.493Z,99125.81
2024-01-15T13:41:51.949Z,99135.63
2024-01-15T13:44:19.177Z,99146.25
2024-01-15T13:46:45.656Z,99137.59
2024-01-15T13:49:12.192Z,99112.16
2024-01-15T13:51:38.885Z,99126.44
2024-01-15T13:54:05.825Z,99135.41
2024-01-15T13:56:36.445Z,99142.56
2024-01-15T13:59:03.024Z,99152.19
2024-01-15T14:01:29.599Z,99153.19
2024-01-15T14:03:56.266Z,99164.78
2024-01-15T14:06:22.952Z,99158.97
2024-01-15T14:08:49.446Z,99173.56
2024-01-15T14:11:16.274Z,99181.19
2024-01-15T14:13:42.847Z,99187.94
2024-01-15T14:16:13.532Z,99196.53
2024-01-15T14:18:40.113Z,99190.03
2024-01-15T14:21:06.670Z,99203.63
2024-01-15T14:23:33.087Z,99187.34
2024-01-15T14:25:59.671Z,99194.63
2024-01-15T14:28:26.523Z,99194.09
2024-01-15T14:30:53.361Z,99204.03
2024-01-15T14:33:20.084Z,99214.81
2024-01-15T14:35:46.774Z,99216.63
2024-01-15T14:38:13.269Z,99219.28
2024-01-15T14:40:39.656Z,99219.28
2024-01-15T14:43:06.195Z,99227.94
2024-01-15T14:45:32.643Z,99230.47
2024-01-15T14:47:59.602Z,99241.91
2024-01-15T14:50:26.551Z,99248.03
2024-01-15T14:52:53.126Z,99252.53
2024-01-15T14:55:19.651Z,99256.31
2024-01-15T14:57:46.116Z,99275.22
2024-01-15T15:00:14.555Z,99263.22
2024-01-15T15:02:41.272Z,99270.69
2024-01-15T15:05:08.474Z,99263.69
2024-01-15T15:07:37.211Z,99268.31
2024-01-15T15:10:05.766Z,99270.28
2024-01-15T15:12:32.285Z,99280.38
2024-01-15T15:15:04.420Z,99299.44
2024-01-15T15:17:36.059Z,99289.09
2024-01-15T15:20:03.872Z,99299.19
2024-01-15T15:22:30.682Z,99305.63
2024-01-15T15:24:57.965Z,99308.59
2024-01-15T15:27:24.463Z,99310.72
2024-01-15T15:29:51.924Z,99318.94
2024-01-15T15:32:18.550Z,99325.38
2024-01-15T15:34:45.241Z,99321.09
2024-01-15T15:37:12.309Z,99330.03
2024-01-15T15:39:39.910Z,99340.66
2024-01-15T15:42:06.487Z,99336.16
2024-01-15T15:44:33.014Z,99343.97
2024-01-15T15:46:59.687Z,99340.34
2024-01-15T15:49:26.351Z,99347.31
2024-01-15T15:51:53.100Z,99351.66
2024-01-15T15:54:19.624Z,99350.78
2024-01-15T15:56:50.712Z,99358.91
2024-01-15T15:59:19.090Z,99345.94
2024-01-15T16:01:46.122Z,99361.31
2024-01-15T16:04:12.690Z,99368.88
2024-01-15T16:06:39.409Z,99371.13
2024-01-15T16:09:05.942Z,99373.41
2024-01-15T16:11:32.750Z,99377.34
2024-01-15T16:14:01.340Z,99380.44
2024-01-15T16:23:11.196Z,99387.84
2024-01-15T16:23:24.223Z,99386.31
2024-01-15T16:23:39.682Z,99381.03
2024-01-15T16:24:52.097Z,99388.28
2024-01-15T16:27:20.426Z,99387.28
2024-01-15T16:29:46.823Z,99381.31
2024-01-15T16:32:13.386Z,99387.44
2024-01-15T16:34:39.900Z,99391.06
2024-01-15T16:37:07.525Z,99392.88
2024-01-15T16:39:34.175Z,99394.56
2024-01-15T16:42:00.582Z,99392.75
2024-01-15T16:44:27.100Z,99391.75
2024-01-15T16:46:55.360Z,99396.94
2024-01-15T16:49:23.902Z,99400.28
2024-01-15T16:51:50.369Z,99393.97
2024-01-15T16:54:16.788Z,99401.66
2024-01-15T16:56:43.225Z,99412.81
2024-01-15T16:59:09.695Z,99413.34
2024-01-15T17:01:36.189Z,99403.44
2024-01-15T17:04:02.623Z,99411.09
2024-01-15T17:06:29.016Z,99414.44
2024-01-15T17:08:55.491Z,99422.25
2024-01-15T17:11:21.892Z,99424.59
2024-01-15T17:13:48.538Z,99419.84
2024-01-15T17:16:14.996Z,99422.22
2024-01-15T17:18:41.441Z,99429.19
2024-01-15T17:21:07.918Z,99421.91
2024-01-15T17:23:34.461Z,99423.72
2024-01-15T17:26:00.932Z,99417.44
2024-01-15T17:28:27.337Z,99424.56
2024-01-15T17:30:53.938Z,99427.09
2024-01-15T17:33:20.847Z,99429.72
2024-01-15T17:35:57.799Z,99435.88
2024-01-15T17:38:24.927Z,99428.88
2024-01-15T17:40:52.568Z,99429.56
2024-01-15T17:43:21.187Z,99432.22
2024-01-15T17:45:48.141Z,99428.59
2024-01-15T17:48:14.684Z,99430.25
2024-01-15T17:50:41.345Z,99442.53
2024-01-15T17:53:07.975Z,99446.88
2024-01-15T17:55:34.382Z,99445.88
2024-01-15T17:58:00.964Z,99451.88
2024-01-15T18:00:27.402Z,99465.16
2024-01-15T18:02:54.522Z,99474.78
2024-01-15T18:05:21.542Z,99471.31
2024-01-15T18:07:48.029Z,99465.03
2024-01-15T18:10:14.762Z,99465.16
2024-01-15T18:12:41.328Z,99462.63
2024-01-15T18:15:08.417Z,99468.13
2024-01-15T18:17:36.306Z,99474.38
2024-01-15T18:20:04.112Z,99474.69
2024-01-15T18:22:30.895Z,99474.69
2024-01-15T18:24:57.422Z,99481.13
2024-01-15T18:27:23.904Z,99489.25
2024-01-15T18:29:50.348Z,99495.50
2024-01-15T18:32:16.816Z,99502.09
2024-01-15T18:34:44.243Z,99512.72
2024-01-15T18:37:10.880Z,99499.75
2024-01-15T18:39:37.337Z,99513.13
2024-01-15T18:42:04.123Z,99516.78
2024-01-15T18:44:30.696Z,99531.84
2024-01-15T18:46:57.245Z,99538.13
2024-01-15T18:49:24.455Z,99529.19
2024-01-15T18:51:54.292Z,99545.09
2024-01-15T18:54:21.271Z,99546.09
2024-01-15T18:56:47.842Z,99555.72
2024-01-15T18:59:14.550Z,99561.88
2024-01-15T19:01:41.334Z,99564.38
2024-01-15T19:04:08.362Z,99558.25
2024-01-15T19:06:34.838Z,99560.75
2024-01-15T19:09:01.296Z,99565.22
2024-01-15T19:11:27.905Z,99582.00
2024-01-15T19:13:54.339Z,99563.25
2024-01-15T19:16:23.372Z,99580.00
2024-01-15T19:18:56.258Z,99571.09
2024-01-15T19:21:22.929Z,99567.44
2024-01-15T19:23:49.632Z,99569.41
2024-01-15T19:26:23.153Z,99567.44
2024-01-15T19:28:50.168Z,99578.34
2024-01-15T19:31:16.754Z,99573.03
2024-01-15T19:33:43.820Z,99594.25
2024-01-15T19:36:22.007Z,99584.47
2024-01-15T19:38:48.503Z,99593.28
2024-01-15T19:41:15.374Z,99593.16
2024-01-15T19:43:41.867Z,99591.31
2024-01-15T19:46:09.664Z,99602.63
2024-01-15T19:48:37.796Z,99599.97
2024-01-15T19:51:04.482Z,99605.28
2024-01-15T19:53:30.917Z,99605.28
2024-01-15T19:55:57.352Z,99607.13
2024-01-15T19:58:24.120Z,99611.56
2024-01-15T20:00:50.560Z,99614.22
2024-01-15T20:03:17.057Z,99609.06
2024-01-15T20:05:43.581Z,99620.78
2024-01-15T20:08:10.467Z,99622.47
2024-01-15T20:10:36.975Z,99634.06
2024-01-15T20:13:03.598Z,99634.06
2024-01-15T20:15:30.045Z,99635.88
2024-01-15T20:17:56.677Z,99635.06
2024-01-15T20:20:25.022Z,99636.00
2024-01-15T20:22:51.673Z,99643.25
2024-01-15T20:25:18.098Z,99651.38
2024-01-15T20:27:44.603Z,99639.25
2024-01-15T20:30:11.666Z,99653.75
2024-01-15T20:32:38.295Z,99648.88
2024-01-15T20:35:06.077Z,99658.91
2024-01-15T20:37:32.538Z,99671.63
2024-01-15T20:39:59.142Z,99671.03
2024-01-15T20:42:26.236Z,99674.81
2024-01-15T20:44:54.103Z,99680.28
2024-01-15T20:47:20.584Z,99697.84
2024-01-15T20:49:48.881Z,99697.84
2024-01-15T20:52:15.329Z,99693.25
2024-01-15T20:54:41.716Z,99696.59
2024-01-15T20:57:08.157Z,99694.78
2024-01-15T20:59:34.762Z,99702.47
2024-01-15T21:02:01.213Z,99702.34
2024-01-15T21:04:27.688Z,99707.38
2024-01-15T21:06:57.042Z,99700.41
2024-01-15T21:09:23.549Z,99704.72
2024-01-15T21:11:50.081Z,99709.19
2024-01-15T21:14:19.642Z,99731.22
2024-01-15T21:16:47.629Z,99724.38
2024-01-15T21:19:14.258Z,99721.75
2024-01-15T21:21:40.957Z,99734.16
2024-01-15T21:24:07.938Z,99735.13
2024-01-15T21:26:34.638Z,99735.28
2024-01-15T21:29:01.308Z,99735.28
2024-01-15T21:31:27.821Z,99734.44
2024-01-15T21:33:54.461Z,99738.88
2024-01-15T21:36:21.645Z,99738.06
2024-01-15T21:38:48.175Z,99731.09
2024-01-15T21:41:14.870Z,99734.56
2024-01-15T21:43:42.189Z,99740.72
2024-01-15T21:46:08.816Z,99735.28
2024-01-15T21:48:35.388Z,99754.69
2024-01-15T21:51:01.906Z,99743.09
2024-01-15T21:53:28.381Z,99765.28
2024-01-15T21:55:54.885Z,99762.63
2024-01-15T21:58:21.413Z,99765.28
2024-01-15T22:00:47.893Z,99780.09
2024-01-15T22:03:14.901Z,99783.56
2024-01-15T22:05:42.754Z,99779.97
2024-01-15T22:08:10.024Z,99785.13
2024-01-15T22:10:36.587Z,99785.94
2024-01-15T22:13:03.179Z,99785.94
2024-01-15T22:15:29.608Z,99795.59
2024-01-15T22:17:56.798Z,99784.16
2024-01-15T22:20:23.301Z,99793.91
2024-01-15T22:22:50.091Z,99791.13
2024-01-15T22:25:16.765Z,99789.31
2024-01-15T22:27:43.213Z,99793.66
2024-01-15T22:30:11.511Z,99797.28
2024-01-15T22:32:38.141Z,99806.06
2024-01-15T22:35:05.147Z,99802.56
2024-01-15T22:37:32.381Z,99809.59
2024-01-15T22:39:59.581Z,99809.59
2024-01-15T22:42:26.516Z,99815.72
2024-01-15T22:44:53.140Z,99821.03
2024-01-15T22:47:19.838Z,99825.50
2024-01-15T22:49:46.277Z,99827.16
2024-01-15T22:52:12.735Z,99821.03
2024-01-15T22:54:39.216Z,99828.00
2024-01-15T22:57:05.674Z,99822.69
2024-01-15T22:59:32.326Z,99823.53
2024-01-15T23:01:58.936Z,99831.63
2024-01-15T23:04:25.544Z,99841.41
2024-01-15T23:06:52.101Z,99841.41
2024-01-15T23:09:18.801Z,99855.63
2024-01-15T23:11:48.910Z,99852.97
2024-01-15T23:14:15.555Z,99845.19
2024-01-15T23:16:43.653Z,99837.22
2024-01-15T23:19:10.493Z,99845.28
2024-01-15T23:21:37.066Z,99847.13
2024-01-15T23:24:04.069Z,99851.59
2024-01-15T23:26:30.819Z,99849.88
2024-01-15T23:28:57.265Z,99858.84
2024-01-15T23:31:23.696Z,99872.09
2024-01-15T23:33:50.292Z,99873.06
2024-01-15T23:36:16.758Z,99867.06
2024-01-15T23:38:43.292Z,99876.97
2024-01-15T23:41:19.289Z,99886.59
2024-01-15T23:43:46.050Z,99880.56
2024-01-15T23:46:14.927Z,99889.38
2024-01-15T23:48:42.512Z,99886.03
2024-01-15T23:51:09.979Z,99892.16
2024-01-15T23:53:36.451Z,99886.84
2024-01-15T23:56:04.301Z,99890.34
2024-01-15T23:58:31.012Z,99893.97
